hwlogo.jpg (8581 bytes)
Home Your Weather Products Services Weather On Your Site Contact
HW Version Logo
Weather Info
Your Weather (Options)
Canadian Weather
International Weather
Enter your " Place, State", US Zip Code or ICAO:  
Forecast Information Radar Information
Ottawa, Ontario, Canada  Lat: 45.30N, Lon: 75.65W
ICAO Used: CYND
Current Conditions
Updated:
Sun & Moon Information:
Temp: N/A
Humidity: N/A
Wind Speed: N/A
Barometer: N/A
Dewpoint: N/A
Heat Index: N/A
Wind Chill: N/A
Civil Twilight: 6:58 AM EST Moon Phase:
Waning Crescent Moon
Waning Crescent Moon
Sunrise: 7:32 AM EST
Sunset: 4:19 PM EST
Civil Twilight: 4:53 PM EST
Forecast for Ottawa, ON, Canada:
(Forecast based on TAF for )
1241 PM EST MON NOV 06 2006
  
AFTERNOONEVENINGOVERNIGHT
PARTLY CLOUDYPARTLY CLOUDYPARTLY CLOUDY
Partly
Cloudy
Partly
Cloudy
Partly
Cloudy
TAF based forecast:
Dated: 1241 PM EST MON NOV 06 2006
Afternoon...Partly cloudy with winds variable at 3 mph.
Evening...Partly cloudy with winds variable at 3 mph.
Overnight...Partly cloudy with winds variable at 3 mph.
Original Encoded TAF:
Dated: 1241 PM EST MON NOV 06 2006
2006/11/06 17:41
CYND 061741Z 061803 VRB03KT P6SM SCT080=


  Powered By HAMweather.
Copyright 2001 - 2003 HAMweather, LLC, all rights reserved.
US Forecasts are Public Domain and derived from the
National Weather Service - (IWIN) and the National Oceanic Atmospheric Administration (NOAA)
Canadian forecasts are obtained from and are copyright of Environment Canada.